Time;durP1;ratioP1;P1;durP2;ratioP2;P2;SDS_P1;SDS_P2;PMS_P1;PMS_P2;Temp;Humidity;BMP_temperature;BMP_pressure;BME280_temperature;BME280_humidity;BME280_pressure;Samples;Min_cycle;Max_cycle;Signal;HPM_P1;HPM_P2
2020/01/27 00:00:21;;;;;;;17.25;10.25;;;;;;;1.67;81.02441;95317.21;;;;
2020/01/27 00:01:52;;;;;;;17.25;10.25;;;;;;;1.67;81.02441;95317.21;;;;
2020/01/27 00:04:18;;;;;;;17.25;10.25;;;;;;;1.67;81.02441;95317.21;;;;
2020/01/27 00:09:32;;;;;;;18.95;10.1;;;;;;;1.81;81.01855;95313.31;;;;
2020/01/27 00:10:55;;;;;;;18.95;10.1;;;;;;;1.81;81.01855;95313.31;;;;
2020/01/27 00:12:01;;;;;;;18.95;10.1;;;;;;;1.81;81.01855;95313.31;;;;
2020/01/27 00:13:04;;;;;;;18.95;10.1;;;;;;;1.81;81.01855;95313.31;;;;
2020/01/27 00:14:10;;;;;;;18.95;10.1;;;;;;;1.81;81.01855;95313.31;;;;
2020/01/27 00:15:13;;;;;;;18.95;10.1;;;;;;;1.81;81.01855;95313.31;;;;
2020/01/27 00:16:14;;;;;;;18.95;10.1;;;;;;;1.81;81.01855;95313.31;;;;
2020/01/27 00:17:14;;;;;;;18.95;10.1;;;;;;;1.81;81.01855;95313.31;;;;
2020/01/27 00:18:15;;;;;;;18.95;10.1;;;;;;;1.81;81.01855;95313.31;;;;
2020/01/27 00:19:15;;;;;;;18.95;10.1;;;;;;;1.81;81.01855;95313.31;;;;
2020/01/27 00:20:16;;;;;;;19.25;9.250001;;;;;;;1.79;81.29883;95311.76;;;;
2020/01/27 00:21:18;;;;;;;19.25;9.250001;;;;;;;1.79;81.29883;95311.76;;;;
2020/01/27 00:22:20;;;;;;;19.25;9.250001;;;;;;;1.79;81.29883;95311.76;;;;
2020/01/27 00:23:20;;;;;;;19.25;9.250001;;;;;;;1.79;81.29883;95311.76;;;;
2020/01/27 00:24:21;;;;;;;19.25;9.250001;;;;;;;1.79;81.29883;95311.76;;;;
2020/01/27 00:25:21;;;;;;;19.25;9.250001;;;;;;;1.79;81.29883;95311.76;;;;
2020/01/27 00:26:22;;;;;;;19.25;9.250001;;;;;;;1.79;81.29883;95311.76;;;;
2020/01/27 00:27:22;;;;;;;19.25;9.250001;;;;;;;1.79;81.29883;95311.76;;;;
2020/01/27 00:28:23;;;;;;;19.25;9.250001;;;;;;;1.79;81.29883;95311.76;;;;
2020/01/27 00:29:23;;;;;;;19.25;9.250001;;;;;;;1.79;81.29883;95311.76;;;;
2020/01/27 00:30:24;;;;;;;17.5;8.949999;;;;;;;1.73;81.69434;95297.34;;;;
2020/01/27 00:31:24;;;;;;;17.5;8.949999;;;;;;;1.73;81.69434;95297.34;;;;
2020/01/27 00:32:26;;;;;;;17.5;8.949999;;;;;;;1.73;81.69434;95297.34;;;;
2020/01/27 00:33:27;;;;;;;17.5;8.949999;;;;;;;1.73;81.69434;95297.34;;;;
2020/01/27 00:34:27;;;;;;;17.5;8.949999;;;;;;;1.73;81.69434;95297.34;;;;
2020/01/27 00:35:29;;;;;;;17.5;8.949999;;;;;;;1.73;81.69434;95297.34;;;;
2020/01/27 00:36:31;;;;;;;17.5;8.949999;;;;;;;1.73;81.69434;95297.34;;;;
2020/01/27 00:37:33;;;;;;;17.5;8.949999;;;;;;;1.73;81.69434;95297.34;;;;
2020/01/27 00:38:33;;;;;;;17.5;8.949999;;;;;;;1.73;81.69434;95297.34;;;;
2020/01/27 00:39:34;;;;;;;17.5;8.949999;;;;;;;1.73;81.69434;95297.34;;;;
2020/01/27 00:40:34;;;;;;;17.5;8.949999;;;;;;;1.73;81.69434;95297.34;;;;
2020/01/27 00:41:35;;;;;;;19.25;9.249998;;;;;;;1.74;81.82324;95295.01;;;;
2020/01/27 00:42:35;;;;;;;19.25;9.249998;;;;;;;1.74;81.82324;95295.01;;;;
2020/01/27 00:43:39;;;;;;;19.25;9.249998;;;;;;;1.74;81.82324;95295.01;;;;
2020/01/27 00:44:46;;;;;;;19.25;9.249998;;;;;;;1.74;81.82324;95295.01;;;;
2020/01/27 00:45:54;;;;;;;19.25;9.249998;;;;;;;1.74;81.82324;95295.01;;;;
2020/01/27 00:52:05;;;;;;;14.45;8.85;;;;;;;1.57;82;95292.6;;;;
2020/01/27 00:53:07;;;;;;;14.45;8.85;;;;;;;1.57;82;95292.6;;;;
2020/01/27 00:54:08;;;;;;;14.45;8.85;;;;;;;1.57;82;95292.6;;;;
2020/01/27 00:55:08;;;;;;;14.45;8.85;;;;;;;1.57;82;95292.6;;;;
2020/01/27 00:56:08;;;;;;;14.45;8.85;;;;;;;1.57;82;95292.6;;;;
2020/01/27 00:57:09;;;;;;;14.45;8.85;;;;;;;1.57;82;95292.6;;;;
2020/01/27 00:58:09;;;;;;;14.45;8.85;;;;;;;1.57;82;95292.6;;;;
2020/01/27 00:59:10;;;;;;;14.45;8.85;;;;;;;1.57;82;95292.6;;;;
2020/01/27 01:00:10;;;;;;;14.45;8.85;;;;;;;1.57;82;95292.6;;;;
2020/01/27 01:01:34;;;;;;;14.45;8.85;;;;;;;1.57;82;95292.6;;;;
2020/01/27 01:02:37;;;;;;;19.4;9.450001;;;;;;;1.54;82.49707;95295.62;;;;
2020/01/27 01:04:01;;;;;;;19.4;9.450001;;;;;;;1.54;82.49707;95295.62;;;;
2020/01/27 01:05:08;;;;;;;19.4;9.450001;;;;;;;1.54;82.49707;95295.62;;;;
2020/01/27 01:06:09;;;;;;;19.4;9.450001;;;;;;;1.54;82.49707;95295.62;;;;
2020/01/27 01:07:58;;;;;;;19.4;9.450001;;;;;;;1.54;82.49707;95295.62;;;;
2020/01/27 01:09:02;;;;;;;19.4;9.450001;;;;;;;1.54;82.49707;95295.62;;;;
2020/01/27 01:12:09;;;;;;;19.4;9.450001;;;;;;;1.54;82.49707;95295.62;;;;
2020/01/27 01:17:22;;;;;;;17.15;9.450001;;;;;;;1.64;82.57715;95304.66;;;;
2020/01/27 01:18:22;;;;;;;17.15;9.450001;;;;;;;1.64;82.57715;95304.66;;;;
2020/01/27 01:19:29;;;;;;;17.15;9.450001;;;;;;;1.64;82.57715;95304.66;;;;
2020/01/27 01:20:30;;;;;;;17.15;9.450001;;;;;;;1.64;82.57715;95304.66;;;;
2020/01/27 01:21:33;;;;;;;17.15;9.450001;;;;;;;1.64;82.57715;95304.66;;;;
2020/01/27 01:22:46;;;;;;;17.15;9.450001;;;;;;;1.64;82.57715;95304.66;;;;
2020/01/27 01:23:47;;;;;;;18.3;10;;;;;;;1.87;82.74805;95307.17;;;;
2020/01/27 01:24:53;;;;;;;18.3;10;;;;;;;1.87;82.74805;95307.17;;;;
2020/01/27 01:25:56;;;;;;;18.3;10;;;;;;;1.87;82.74805;95307.17;;;;
2020/01/27 01:27:51;;;;;;;18.3;10;;;;;;;1.87;82.74805;95307.17;;;;
2020/01/27 01:28:52;;;;;;;18.3;10;;;;;;;1.87;82.74805;95307.17;;;;
2020/01/27 01:29:52;;;;;;;18.3;10;;;;;;;1.87;82.74805;95307.17;;;;
2020/01/27 01:30:53;;;;;;;18.3;10;;;;;;;1.87;82.74805;95307.17;;;;
2020/01/27 01:32:04;;;;;;;18.3;10;;;;;;;1.87;82.74805;95307.17;;;;
2020/01/27 01:33:51;;;;;;;18.3;10;;;;;;;1.87;82.74805;95307.17;;;;
2020/01/27 01:34:52;;;;;;;19.75;9.75;;;;;;;2.06;82.82617;95302.66;;;;
2020/01/27 01:35:57;;;;;;;19.75;9.75;;;;;;;2.06;82.82617;95302.66;;;;
2020/01/27 01:36:58;;;;;;;19.75;9.75;;;;;;;2.06;82.82617;95302.66;;;;
2020/01/27 01:37:59;;;;;;;19.75;9.75;;;;;;;2.06;82.82617;95302.66;;;;
2020/01/27 01:39:04;;;;;;;19.75;9.75;;;;;;;2.06;82.82617;95302.66;;;;
2020/01/27 01:42:02;;;;;;;19.75;9.75;;;;;;;2.06;82.82617;95302.66;;;;
2020/01/27 01:43:02;;;;;;;19.75;9.75;;;;;;;2.06;82.82617;95302.66;;;;
2020/01/27 01:44:07;;;;;;;19.75;9.75;;;;;;;2.06;82.82617;95302.66;;;;
2020/01/27 01:45:09;;;;;;;18.65;10.25;;;;;;;2.37;83.07324;95315.36;;;;
2020/01/27 01:50:25;;;;;;;18.65;10.25;;;;;;;2.37;83.07324;95315.36;;;;
2020/01/27 01:51:51;;;;;;;18.65;10.25;;;;;;;2.37;83.07324;95315.36;;;;
2020/01/27 01:52:56;;;;;;;18.65;10.25;;;;;;;2.37;83.07324;95315.36;;;;
2020/01/27 01:53:58;;;;;;;18.65;10.25;;;;;;;2.37;83.07324;95315.36;;;;
2020/01/27 01:54:59;;;;;;;18.65;10.25;;;;;;;2.37;83.07324;95315.36;;;;
2020/01/27 01:55:59;;;;;;;20.95;9.5;;;;;;;2.66;83.16113;95313.58;;;;
2020/01/27 01:57:06;;;;;;;20.95;9.5;;;;;;;2.66;83.16113;95313.58;;;;
2020/01/27 01:58:06;;;;;;;20.95;9.5;;;;;;;2.66;83.16113;95313.58;;;;
2020/01/27 01:59:09;;;;;;;20.95;9.5;;;;;;;2.66;83.16113;95313.58;;;;
2020/01/27 02:00:11;;;;;;;20.95;9.5;;;;;;;2.66;83.16113;95313.58;;;;
2020/01/27 02:02:04;;;;;;;20.95;9.5;;;;;;;2.66;83.16113;95313.58;;;;
2020/01/27 02:03:13;;;;;;;20.95;9.5;;;;;;;2.66;83.16113;95313.58;;;;
2020/01/27 02:04:19;;;;;;;20.95;9.5;;;;;;;2.66;83.16113;95313.58;;;;
2020/01/27 02:05:23;;;;;;;20.95;9.5;;;;;;;2.66;83.16113;95313.58;;;;
2020/01/27 02:06:24;;;;;;;17.65;8.75;;;;;;;2.98;83.25488;95307.79;;;;
2020/01/27 02:07:24;;;;;;;17.65;8.75;;;;;;;2.98;83.25488;95307.79;;;;
2020/01/27 02:08:26;;;;;;;17.65;8.75;;;;;;;2.98;83.25488;95307.79;;;;
2020/01/27 02:09:28;;;;;;;17.65;8.75;;;;;;;2.98;83.25488;95307.79;;;;
2020/01/27 02:10:38;;;;;;;17.65;8.75;;;;;;;2.98;83.25488;95307.79;;;;
2020/01/27 02:11:45;;;;;;;17.65;8.75;;;;;;;2.98;83.25488;95307.79;;;;
2020/01/27 02:12:45;;;;;;;17.65;8.75;;;;;;;2.98;83.25488;95307.79;;;;
2020/01/27 02:13:47;;;;;;;17.65;8.75;;;;;;;2.98;83.25488;95307.79;;;;
2020/01/27 02:14:48;;;;;;;17.65;8.75;;;;;;;2.98;83.25488;95307.79;;;;
2020/01/27 02:15:49;;;;;;;17.65;8.75;;;;;;;2.98;83.25488;95307.79;;;;
2020/01/27 02:17:10;;;;;;;18.05;9.050001;;;;;;;3.11;83.31152;95302.18;;;;
2020/01/27 02:18:11;;;;;;;18.05;9.050001;;;;;;;3.11;83.31152;95302.18;;;;
2020/01/27 02:19:12;;;;;;;18.05;9.050001;;;;;;;3.11;83.31152;95302.18;;;;
2020/01/27 02:20:13;;;;;;;18.05;9.050001;;;;;;;3.11;83.31152;95302.18;;;;
2020/01/27 02:21:22;;;;;;;18.05;9.050001;;;;;;;3.11;83.31152;95302.18;;;;
2020/01/27 02:22:30;;;;;;;18.05;9.050001;;;;;;;3.11;83.31152;95302.18;;;;
2020/01/27 02:23:36;;;;;;;18.05;9.050001;;;;;;;3.11;83.31152;95302.18;;;;
2020/01/27 02:24:37;;;;;;;18.05;9.050001;;;;;;;3.11;83.31152;95302.18;;;;
2020/01/27 02:25:37;;;;;;;18.05;9.050001;;;;;;;3.11;83.31152;95302.18;;;;
2020/01/27 02:26:38;;;;;;;18.05;9.050001;;;;;;;3.11;83.31152;95302.18;;;;
2020/01/27 02:27:42;;;;;;;18.25;9.049999;;;;;;;3.29;83.52441;95284.31;;;;
2020/01/27 02:28:47;;;;;;;18.25;9.049999;;;;;;;3.29;83.52441;95284.31;;;;
2020/01/27 02:29:48;;;;;;;18.25;9.049999;;;;;;;3.29;83.52441;95284.31;;;;
2020/01/27 02:30:48;;;;;;;18.25;9.049999;;;;;;;3.29;83.52441;95284.31;;;;
2020/01/27 02:31:49;;;;;;;18.25;9.049999;;;;;;;3.29;83.52441;95284.31;;;;
2020/01/27 02:32:51;;;;;;;18.25;9.049999;;;;;;;3.29;83.52441;95284.31;;;;
2020/01/27 02:33:52;;;;;;;18.25;9.049999;;;;;;;3.29;83.52441;95284.31;;;;
2020/01/27 02:34:56;;;;;;;18.25;9.049999;;;;;;;3.29;83.52441;95284.31;;;;
2020/01/27 02:35:56;;;;;;;18.25;9.049999;;;;;;;3.29;83.52441;95284.31;;;;
2020/01/27 02:36:58;;;;;;;18.25;9.049999;;;;;;;3.29;83.52441;95284.31;;;;
2020/01/27 02:38:09;;;;;;;19;9.7;;;;;;;3.34;83.76465;95281.47;;;;
2020/01/27 02:39:11;;;;;;;19;9.7;;;;;;;3.34;83.76465;95281.47;;;;
2020/01/27 02:40:28;;;;;;;19;9.7;;;;;;;3.34;83.76465;95281.47;;;;
2020/01/27 02:41:31;;;;;;;19;9.7;;;;;;;3.34;83.76465;95281.47;;;;
2020/01/27 02:42:35;;;;;;;19;9.7;;;;;;;3.34;83.76465;95281.47;;;;
2020/01/27 02:43:36;;;;;;;19;9.7;;;;;;;3.34;83.76465;95281.47;;;;
2020/01/27 02:44:36;;;;;;;19;9.7;;;;;;;3.34;83.76465;95281.47;;;;
2020/01/27 02:45:38;;;;;;;19;9.7;;;;;;;3.34;83.76465;95281.47;;;;
2020/01/27 02:46:39;;;;;;;19;9.7;;;;;;;3.34;83.76465;95281.47;;;;
2020/01/27 02:47:39;;;;;;;19;9.7;;;;;;;3.34;83.76465;95281.47;;;;
2020/01/27 02:48:40;;;;;;;17.5;10;;;;;;;3.44;84.17285;95277.45;;;;
2020/01/27 02:49:41;;;;;;;17.5;10;;;;;;;3.44;84.17285;95277.45;;;;
2020/01/27 02:50:41;;;;;;;17.5;10;;;;;;;3.44;84.17285;95277.45;;;;
2020/01/27 02:51:42;;;;;;;17.5;10;;;;;;;3.44;84.17285;95277.45;;;;
2020/01/27 02:52:43;;;;;;;17.5;10;;;;;;;3.44;84.17285;95277.45;;;;
2020/01/27 02:53:43;;;;;;;17.5;10;;;;;;;3.44;84.17285;95277.45;;;;
2020/01/27 02:54:44;;;;;;;17.5;10;;;;;;;3.44;84.17285;95277.45;;;;
2020/01/27 02:55:44;;;;;;;17.5;10;;;;;;;3.44;84.17285;95277.45;;;;
2020/01/27 02:56:49;;;;;;;17.5;10;;;;;;;3.44;84.17285;95277.45;;;;
2020/01/27 02:57:53;;;;;;;17.5;10;;;;;;;3.44;84.17285;95277.45;;;;
2020/01/27 02:58:54;;;;;;;19;10.35;;;;;;;3.5;84.45703;95279.36;;;;
2020/01/27 02:59:54;;;;;;;19;10.35;;;;;;;3.5;84.45703;95279.36;;;;
2020/01/27 03:00:55;;;;;;;19;10.35;;;;;;;3.5;84.45703;95279.36;;;;
2020/01/27 03:02:01;;;;;;;19;10.35;;;;;;;3.5;84.45703;95279.36;;;;
2020/01/27 03:03:27;;;;;;;19;10.35;;;;;;;3.5;84.45703;95279.36;;;;
2020/01/27 03:04:29;;;;;;;19;10.35;;;;;;;3.5;84.45703;95279.36;;;;
2020/01/27 03:05:43;;;;;;;19;10.35;;;;;;;3.5;84.45703;95279.36;;;;
2020/01/27 03:06:47;;;;;;;19;10.35;;;;;;;3.5;84.45703;95279.36;;;;
2020/01/27 03:07:48;;;;;;;19;10.35;;;;;;;3.5;84.45703;95279.36;;;;
2020/01/27 03:08:50;;;;;;;19;10.35;;;;;;;3.5;84.45703;95279.36;;;;
2020/01/27 03:09:50;;;;;;;19.7;10.2;;;;;;;3.61;84.97266;95280.26;;;;
2020/01/27 03:10:57;;;;;;;19.7;10.2;;;;;;;3.61;84.97266;95280.26;;;;
2020/01/27 03:12:33;;;;;;;19.7;10.2;;;;;;;3.61;84.97266;95280.26;;;;
2020/01/27 03:13:33;;;;;;;19.7;10.2;;;;;;;3.61;84.97266;95280.26;;;;
2020/01/27 03:14:34;;;;;;;19.7;10.2;;;;;;;3.61;84.97266;95280.26;;;;
2020/01/27 03:15:34;;;;;;;19.7;10.2;;;;;;;3.61;84.97266;95280.26;;;;
2020/01/27 03:16:35;;;;;;;19.7;10.2;;;;;;;3.61;84.97266;95280.26;;;;
2020/01/27 03:17:38;;;;;;;19.7;10.2;;;;;;;3.61;84.97266;95280.26;;;;
2020/01/27 03:18:39;;;;;;;19.7;10.2;;;;;;;3.61;84.97266;95280.26;;;;
2020/01/27 03:19:39;;;;;;;19.7;10.2;;;;;;;3.61;84.97266;95280.26;;;;
2020/01/27 03:20:40;;;;;;;21.9;10.4;;;;;;;3.63;85.29102;95273.3;;;;
2020/01/27 03:21:41;;;;;;;21.9;10.4;;;;;;;3.63;85.29102;95273.3;;;;
2020/01/27 03:22:42;;;;;;;21.9;10.4;;;;;;;3.63;85.29102;95273.3;;;;
2020/01/27 03:23:43;;;;;;;21.9;10.4;;;;;;;3.63;85.29102;95273.3;;;;
2020/01/27 03:24:43;;;;;;;21.9;10.4;;;;;;;3.63;85.29102;95273.3;;;;
2020/01/27 03:25:44;;;;;;;21.9;10.4;;;;;;;3.63;85.29102;95273.3;;;;
2020/01/27 03:26:44;;;;;;;21.9;10.4;;;;;;;3.63;85.29102;95273.3;;;;
2020/01/27 03:27:45;;;;;;;21.9;10.4;;;;;;;3.63;85.29102;95273.3;;;;
2020/01/27 03:28:45;;;;;;;21.9;10.4;;;;;;;3.63;85.29102;95273.3;;;;
2020/01/27 03:29:46;;;;;;;21.9;10.4;;;;;;;3.63;85.29102;95273.3;;;;
2020/01/27 03:30:46;;;;;;;18.25;10.2;;;;;;;3.69;86.32031;95277.84;;;;
2020/01/27 03:31:47;;;;;;;18.25;10.2;;;;;;;3.69;86.32031;95277.84;;;;
2020/01/27 03:32:47;;;;;;;18.25;10.2;;;;;;;3.69;86.32031;95277.84;;;;
2020/01/27 03:33:48;;;;;;;18.25;10.2;;;;;;;3.69;86.32031;95277.84;;;;
2020/01/27 03:34:48;;;;;;;18.25;10.2;;;;;;;3.69;86.32031;95277.84;;;;
2020/01/27 03:35:49;;;;;;;18.25;10.2;;;;;;;3.69;86.32031;95277.84;;;;
2020/01/27 03:36:49;;;;;;;18.25;10.2;;;;;;;3.69;86.32031;95277.84;;;;
2020/01/27 03:37:50;;;;;;;18.25;10.2;;;;;;;3.69;86.32031;95277.84;;;;
2020/01/27 03:38:50;;;;;;;18.25;10.2;;;;;;;3.69;86.32031;95277.84;;;;
2020/01/27 03:39:52;;;;;;;18.25;10.2;;;;;;;3.69;86.32031;95277.84;;;;
2020/01/27 03:40:53;;;;;;;18.25;10.2;;;;;;;3.69;86.32031;95277.84;;;;
2020/01/27 03:41:54;;;;;;;18.45;9.799999;;;;;;;3.7;86.32227;95276.42;;;;
2020/01/27 03:42:55;;;;;;;18.45;9.799999;;;;;;;3.7;86.32227;95276.42;;;;
2020/01/27 03:43:55;;;;;;;18.45;9.799999;;;;;;;3.7;86.32227;95276.42;;;;
2020/01/27 03:44:56;;;;;;;18.45;9.799999;;;;;;;3.7;86.32227;95276.42;;;;
2020/01/27 03:45:56;;;;;;;18.45;9.799999;;;;;;;3.7;86.32227;95276.42;;;;
2020/01/27 03:46:57;;;;;;;18.45;9.799999;;;;;;;3.7;86.32227;95276.42;;;;
2020/01/27 03:47:58;;;;;;;18.45;9.799999;;;;;;;3.7;86.32227;95276.42;;;;
2020/01/27 03:49:05;;;;;;;18.45;9.799999;;;;;;;3.7;86.32227;95276.42;;;;
2020/01/27 03:50:44;;;;;;;18.45;9.799999;;;;;;;3.7;86.32227;95276.42;;;;
2020/01/27 03:51:54;;;;;;;18.45;9.799999;;;;;;;3.7;86.32227;95276.42;;;;
2020/01/27 03:52:59;;;;;;;22;10.15;;;;;;;3.76;86.51172;95287.26;;;;
2020/01/27 03:54:00;;;;;;;22;10.15;;;;;;;3.76;86.51172;95287.26;;;;
2020/01/27 03:55:03;;;;;;;22;10.15;;;;;;;3.76;86.51172;95287.26;;;;
2020/01/27 03:56:04;;;;;;;22;10.15;;;;;;;3.76;86.51172;95287.26;;;;
2020/01/27 03:57:05;;;;;;;22;10.15;;;;;;;3.76;86.51172;95287.26;;;;
2020/01/27 03:58:09;;;;;;;22;10.15;;;;;;;3.76;86.51172;95287.26;;;;
2020/01/27 03:59:11;;;;;;;22;10.15;;;;;;;3.76;86.51172;95287.26;;;;
2020/01/27 04:00:12;;;;;;;22;10.15;;;;;;;3.76;86.51172;95287.26;;;;
2020/01/27 04:01:22;;;;;;;22;10.15;;;;;;;3.76;86.51172;95287.26;;;;
2020/01/27 04:02:23;;;;;;;22;10.15;;;;;;;3.76;86.51172;95287.26;;;;
2020/01/27 04:03:32;;;;;;;20.05;9.650001;;;;;;;3.7;86.60742;95279.94;;;;
2020/01/27 04:04:33;;;;;;;20.05;9.650001;;;;;;;3.7;86.60742;95279.94;;;;
2020/01/27 04:05:33;;;;;;;20.05;9.650001;;;;;;;3.7;86.60742;95279.94;;;;
2020/01/27 04:06:34;;;;;;;20.05;9.650001;;;;;;;3.7;86.60742;95279.94;;;;
2020/01/27 04:07:34;;;;;;;20.05;9.650001;;;;;;;3.7;86.60742;95279.94;;;;
2020/01/27 04:08:35;;;;;;;20.05;9.650001;;;;;;;3.7;86.60742;95279.94;;;;
2020/01/27 04:09:35;;;;;;;20.05;9.650001;;;;;;;3.7;86.60742;95279.94;;;;
2020/01/27 04:10:48;;;;;;;20.05;9.650001;;;;;;;3.7;86.60742;95279.94;;;;
2020/01/27 04:11:49;;;;;;;20.05;9.650001;;;;;;;3.7;86.60742;95279.94;;;;
2020/01/27 04:12:50;;;;;;;20.05;9.650001;;;;;;;3.7;86.60742;95279.94;;;;
2020/01/27 04:13:50;;;;;;;18.6;10.35;;;;;;;3.63;87.10645;95269.3;;;;
2020/01/27 04:14:51;;;;;;;18.6;10.35;;;;;;;3.63;87.10645;95269.3;;;;
2020/01/27 04:15:55;;;;;;;18.6;10.35;;;;;;;3.63;87.10645;95269.3;;;;
2020/01/27 04:17:03;;;;;;;18.6;10.35;;;;;;;3.63;87.10645;95269.3;;;;
2020/01/27 04:18:04;;;;;;;18.6;10.35;;;;;;;3.63;87.10645;95269.3;;;;
2020/01/27 04:19:05;;;;;;;18.6;10.35;;;;;;;3.63;87.10645;95269.3;;;;
2020/01/27 04:24:07;;;;;;;19.75;11.15;;;;;;;3.58;87.77637;95267.72;;;;
2020/01/27 04:25:08;;;;;;;19.75;11.15;;;;;;;3.58;87.77637;95267.72;;;;
2020/01/27 04:26:08;;;;;;;19.75;11.15;;;;;;;3.58;87.77637;95267.72;;;;
2020/01/27 04:27:09;;;;;;;19.75;11.15;;;;;;;3.58;87.77637;95267.72;;;;
2020/01/27 04:28:09;;;;;;;19.75;11.15;;;;;;;3.58;87.77637;95267.72;;;;
2020/01/27 04:29:10;;;;;;;19.75;11.15;;;;;;;3.58;87.77637;95267.72;;;;
2020/01/27 04:30:11;;;;;;;19.75;11.15;;;;;;;3.58;87.77637;95267.72;;;;
2020/01/27 04:31:11;;;;;;;19.75;11.15;;;;;;;3.58;87.77637;95267.72;;;;
2020/01/27 04:32:12;;;;;;;19.75;11.15;;;;;;;3.58;87.77637;95267.72;;;;
2020/01/27 04:33:12;;;;;;;19.75;11.15;;;;;;;3.58;87.77637;95267.72;;;;
2020/01/27 04:34:13;;;;;;;21.85;10.45;;;;;;;3.6;87.85352;95265.66;;;;
2020/01/27 04:35:13;;;;;;;21.85;10.45;;;;;;;3.6;87.85352;95265.66;;;;
2020/01/27 04:36:14;;;;;;;21.85;10.45;;;;;;;3.6;87.85352;95265.66;;;;
2020/01/27 04:37:14;;;;;;;21.85;10.45;;;;;;;3.6;87.85352;95265.66;;;;
2020/01/27 04:38:15;;;;;;;21.85;10.45;;;;;;;3.6;87.85352;95265.66;;;;
2020/01/27 04:39:16;;;;;;;21.85;10.45;;;;;;;3.6;87.85352;95265.66;;;;
2020/01/27 04:40:17;;;;;;;21.85;10.45;;;;;;;3.6;87.85352;95265.66;;;;
2020/01/27 04:41:18;;;;;;;21.85;10.45;;;;;;;3.6;87.85352;95265.66;;;;
2020/01/27 04:42:18;;;;;;;21.85;10.45;;;;;;;3.6;87.85352;95265.66;;;;
2020/01/27 04:43:22;;;;;;;21.85;10.45;;;;;;;3.6;87.85352;95265.66;;;;
2020/01/27 04:44:23;;;;;;;21.85;10.45;;;;;;;3.6;87.85352;95265.66;;;;
2020/01/27 04:45:23;;;;;;;18.1;10.2;;;;;;;3.5;87.76074;95253.59;;;;
2020/01/27 04:46:24;;;;;;;18.1;10.2;;;;;;;3.5;87.76074;95253.59;;;;
2020/01/27 04:47:24;;;;;;;18.1;10.2;;;;;;;3.5;87.76074;95253.59;;;;
2020/01/27 04:48:25;;;;;;;18.1;10.2;;;;;;;3.5;87.76074;95253.59;;;;
2020/01/27 04:49:25;;;;;;;18.1;10.2;;;;;;;3.5;87.76074;95253.59;;;;
2020/01/27 04:50:26;;;;;;;18.1;10.2;;;;;;;3.5;87.76074;95253.59;;;;
2020/01/27 04:51:26;;;;;;;18.1;10.2;;;;;;;3.5;87.76074;95253.59;;;;
2020/01/27 04:52:27;;;;;;;18.1;10.2;;;;;;;3.5;87.76074;95253.59;;;;
2020/01/27 04:53:28;;;;;;;18.1;10.2;;;;;;;3.5;87.76074;95253.59;;;;
2020/01/27 04:54:28;;;;;;;18.1;10.2;;;;;;;3.5;87.76074;95253.59;;;;
2020/01/27 04:55:29;;;;;;;19.5;10;;;;;;;3.44;87.99023;95240.09;;;;
2020/01/27 04:56:29;;;;;;;19.5;10;;;;;;;3.44;87.99023;95240.09;;;;
2020/01/27 04:57:30;;;;;;;19.5;10;;;;;;;3.44;87.99023;95240.09;;;;
2020/01/27 04:58:31;;;;;;;19.5;10;;;;;;;3.44;87.99023;95240.09;;;;
2020/01/27 04:59:32;;;;;;;19.5;10;;;;;;;3.44;87.99023;95240.09;;;;
2020/01/27 05:00:32;;;;;;;19.5;10;;;;;;;3.44;87.99023;95240.09;;;;
2020/01/27 05:01:33;;;;;;;19.5;10;;;;;;;3.44;87.99023;95240.09;;;;
2020/01/27 05:02:33;;;;;;;19.5;10;;;;;;;3.44;87.99023;95240.09;;;;
2020/01/27 05:03:34;;;;;;;19.5;10;;;;;;;3.44;87.99023;95240.09;;;;
2020/01/27 05:04:35;;;;;;;19.5;10;;;;;;;3.44;87.99023;95240.09;;;;
2020/01/27 05:05:36;;;;;;;19.5;10;;;;;;;3.44;87.99023;95240.09;;;;
2020/01/27 05:06:36;;;;;;;22.35;10.5;;;;;;;3.29;88.14844;95248.67;;;;
2020/01/27 05:07:38;;;;;;;22.35;10.5;;;;;;;3.29;88.14844;95248.67;;;;
2020/01/27 05:08:40;;;;;;;22.35;10.5;;;;;;;3.29;88.14844;95248.67;;;;
2020/01/27 05:09:46;;;;;;;22.35;10.5;;;;;;;3.29;88.14844;95248.67;;;;
2020/01/27 05:10:53;;;;;;;22.35;10.5;;;;;;;3.29;88.14844;95248.67;;;;
2020/01/27 05:11:57;;;;;;;22.35;10.5;;;;;;;3.29;88.14844;95248.67;;;;
2020/01/27 05:13:03;;;;;;;22.35;10.5;;;;;;;3.29;88.14844;95248.67;;;;
2020/01/27 05:14:54;;;;;;;22.35;10.5;;;;;;;3.29;88.14844;95248.67;;;;
2020/01/27 05:16:04;;;;;;;22.35;10.5;;;;;;;3.29;88.14844;95248.67;;;;
2020/01/27 05:17:11;;;;;;;20.6;10.15;;;;;;;3.27;88.47949;95244.56;;;;
2020/01/27 05:19:21;;;;;;;20.6;10.15;;;;;;;3.27;88.47949;95244.56;;;;
2020/01/27 05:20:27;;;;;;;20.6;10.15;;;;;;;3.27;88.47949;95244.56;;;;
2020/01/27 05:21:27;;;;;;;20.6;10.15;;;;;;;3.27;88.47949;95244.56;;;;
2020/01/27 05:22:28;;;;;;;20.6;10.15;;;;;;;3.27;88.47949;95244.56;;;;
2020/01/27 05:23:28;;;;;;;20.6;10.15;;;;;;;3.27;88.47949;95244.56;;;;
2020/01/27 05:24:29;;;;;;;20.6;10.15;;;;;;;3.27;88.47949;95244.56;;;;
2020/01/27 05:25:29;;;;;;;20.6;10.15;;;;;;;3.27;88.47949;95244.56;;;;
2020/01/27 05:26:31;;;;;;;20.6;10.15;;;;;;;3.27;88.47949;95244.56;;;;
2020/01/27 05:27:31;;;;;;;24.35;10.6;;;;;;;3.22;88.66699;95242.05;;;;
2020/01/27 05:28:32;;;;;;;24.35;10.6;;;;;;;3.22;88.66699;95242.05;;;;
2020/01/27 05:29:33;;;;;;;24.35;10.6;;;;;;;3.22;88.66699;95242.05;;;;
2020/01/27 05:30:33;;;;;;;24.35;10.6;;;;;;;3.22;88.66699;95242.05;;;;
2020/01/27 05:31:34;;;;;;;24.35;10.6;;;;;;;3.22;88.66699;95242.05;;;;
2020/01/27 05:32:35;;;;;;;24.35;10.6;;;;;;;3.22;88.66699;95242.05;;;;
2020/01/27 05:33:36;;;;;;;24.35;10.6;;;;;;;3.22;88.66699;95242.05;;;;
2020/01/27 05:34:38;;;;;;;24.35;10.6;;;;;;;3.22;88.66699;95242.05;;;;
2020/01/27 05:35:38;;;;;;;24.35;10.6;;;;;;;3.22;88.66699;95242.05;;;;
2020/01/27 05:36:39;;;;;;;24.35;10.6;;;;;;;3.22;88.66699;95242.05;;;;
2020/01/27 05:37:39;;;;;;;24.35;10.6;;;;;;;3.22;88.66699;95242.05;;;;
2020/01/27 05:38:40;;;;;;;25.5;9.999999;;;;;;;3.18;88.77441;95249.61;;;;
2020/01/27 05:39:40;;;;;;;25.5;9.999999;;;;;;;3.18;88.77441;95249.61;;;;
2020/01/27 05:40:40;;;;;;;25.5;9.999999;;;;;;;3.18;88.77441;95249.61;;;;
2020/01/27 05:41:41;;;;;;;25.5;9.999999;;;;;;;3.18;88.77441;95249.61;;;;
2020/01/27 05:42:42;;;;;;;25.5;9.999999;;;;;;;3.18;88.77441;95249.61;;;;
2020/01/27 05:43:42;;;;;;;25.5;9.999999;;;;;;;3.18;88.77441;95249.61;;;;
2020/01/27 05:44:43;;;;;;;25.5;9.999999;;;;;;;3.18;88.77441;95249.61;;;;
2020/01/27 05:45:43;;;;;;;25.5;9.999999;;;;;;;3.18;88.77441;95249.61;;;;
2020/01/27 05:46:44;;;;;;;25.5;9.999999;;;;;;;3.18;88.77441;95249.61;;;;
2020/01/27 05:47:44;;;;;;;25.5;9.999999;;;;;;;3.18;88.77441;95249.61;;;;
2020/01/27 05:48:45;;;;;;;24.05;9.500001;;;;;;;2.95;89.24023;95252.56;;;;
2020/01/27 05:49:45;;;;;;;24.05;9.500001;;;;;;;2.95;89.24023;95252.56;;;;
2020/01/27 05:50:46;;;;;;;24.05;9.500001;;;;;;;2.95;89.24023;95252.56;;;;
2020/01/27 05:51:46;;;;;;;24.05;9.500001;;;;;;;2.95;89.24023;95252.56;;;;
2020/01/27 05:52:47;;;;;;;24.05;9.500001;;;;;;;2.95;89.24023;95252.56;;;;
2020/01/27 05:53:47;;;;;;;24.05;9.500001;;;;;;;2.95;89.24023;95252.56;;;;
2020/01/27 05:54:48;;;;;;;24.05;9.500001;;;;;;;2.95;89.24023;95252.56;;;;
2020/01/27 05:55:48;;;;;;;24.05;9.500001;;;;;;;2.95;89.24023;95252.56;;;;
2020/01/27 05:56:48;;;;;;;24.05;9.500001;;;;;;;2.95;89.24023;95252.56;;;;
2020/01/27 05:57:49;;;;;;;24.05;9.500001;;;;;;;2.95;89.24023;95252.56;;;;
2020/01/27 05:58:50;;;;;;;24.05;9.500001;;;;;;;2.95;89.24023;95252.56;;;;
2020/01/27 05:59:50;;;;;;;19.85;9.7;;;;;;;2.99;89.60449;95254.76;;;;
2020/01/27 06:00:51;;;;;;;19.85;9.7;;;;;;;2.99;89.60449;95254.76;;;;
2020/01/27 06:01:51;;;;;;;19.85;9.7;;;;;;;2.99;89.60449;95254.76;;;;
2020/01/27 06:02:52;;;;;;;19.85;9.7;;;;;;;2.99;89.60449;95254.76;;;;
2020/01/27 06:03:52;;;;;;;19.85;9.7;;;;;;;2.99;89.60449;95254.76;;;;
2020/01/27 06:04:53;;;;;;;19.85;9.7;;;;;;;2.99;89.60449;95254.76;;;;
2020/01/27 06:05:53;;;;;;;19.85;9.7;;;;;;;2.99;89.60449;95254.76;;;;
2020/01/27 06:06:53;;;;;;;19.85;9.7;;;;;;;2.99;89.60449;95254.76;;;;
2020/01/27 06:07:54;;;;;;;19.85;9.7;;;;;;;2.99;89.60449;95254.76;;;;
2020/01/27 06:08:54;;;;;;;19.85;9.7;;;;;;;2.99;89.60449;95254.76;;;;
2020/01/27 06:09:55;;;;;;;18.7;8.550001;;;;;;;3.08;89.69727;95252.7;;;;
2020/01/27 06:10:55;;;;;;;18.7;8.550001;;;;;;;3.08;89.69727;95252.7;;;;
2020/01/27 06:11:56;;;;;;;18.7;8.550001;;;;;;;3.08;89.69727;95252.7;;;;
2020/01/27 06:12:56;;;;;;;18.7;8.550001;;;;;;;3.08;89.69727;95252.7;;;;
2020/01/27 06:13:57;;;;;;;18.7;8.550001;;;;;;;3.08;89.69727;95252.7;;;;
2020/01/27 06:14:57;;;;;;;18.7;8.550001;;;;;;;3.08;89.69727;95252.7;;;;
2020/01/27 06:15:58;;;;;;;18.7;8.550001;;;;;;;3.08;89.69727;95252.7;;;;
2020/01/27 06:16:58;;;;;;;18.7;8.550001;;;;;;;3.08;89.69727;95252.7;;;;
2020/01/27 06:17:59;;;;;;;18.7;8.550001;;;;;;;3.08;89.69727;95252.7;;;;
2020/01/27 06:18:59;;;;;;;18.7;8.550001;;;;;;;3.08;89.69727;95252.7;;;;
2020/01/27 06:20:00;;;;;;;18.7;8.550001;;;;;;;3.08;89.69727;95252.7;;;;
2020/01/27 06:21:00;;;;;;;21.25;8.35;;;;;;;3.27;89.9043;95249.91;;;;
2020/01/27 06:22:01;;;;;;;21.25;8.35;;;;;;;3.27;89.9043;95249.91;;;;
2020/01/27 06:23:01;;;;;;;21.25;8.35;;;;;;;3.27;89.9043;95249.91;;;;
2020/01/27 06:24:02;;;;;;;21.25;8.35;;;;;;;3.27;89.9043;95249.91;;;;